createdAt,value
2023-03-06T00:04:24.525Z,6.32
2023-03-06T00:09:49.909Z,6.10
2023-03-06T00:15:14.587Z,6.43
2023-03-06T00:20:40.139Z,5.53
2023-03-06T00:26:08.197Z,7.45
2023-03-06T00:31:32.164Z,7.13
2023-03-06T00:36:55.885Z,5.95
2023-03-06T00:42:21.144Z,4.95
2023-03-06T00:47:44.857Z,5.60
2023-03-06T00:53:08.555Z,6.50
2023-03-06T00:58:33.640Z,5.10
2023-03-06T01:03:57.450Z,5.43
2023-03-06T01:09:21.264Z,5.38
2023-03-06T01:14:46.452Z,5.38
2023-03-06T01:20:14.626Z,6.38
2023-03-06T01:25:39.061Z,5.45
2023-03-06T01:31:04.793Z,4.78
2023-03-06T01:36:28.716Z,4.60
2023-03-06T01:41:52.412Z,5.20
2023-03-06T01:47:17.542Z,5.35
2023-03-06T01:52:47.596Z,4.53
2023-03-06T01:58:14.280Z,4.45
2023-03-06T02:03:41.389Z,4.85
2023-03-06T02:09:07.022Z,5.13
2023-03-06T02:14:31.336Z,4.93
2023-03-06T02:20:03.997Z,4.47
2023-03-06T02:25:34.982Z,4.05
2023-03-06T02:30:59.387Z,4.78
2023-03-06T02:36:23.565Z,4.38
2023-03-06T02:41:48.940Z,5.00
2023-03-06T02:47:14.100Z,4.15
2023-03-06T02:52:37.784Z,4.78
2023-03-06T02:58:03.552Z,5.22
2023-03-06T03:03:27.895Z,4.53
2023-03-06T03:08:52.336Z,4.40
2023-03-06T03:14:17.823Z,4.60
2023-03-06T03:19:43.630Z,4.35
2023-03-06T03:25:09.487Z,4.82
2023-03-06T03:30:35.171Z,4.70
2023-03-06T03:35:59.927Z,5.07
2023-03-06T03:41:24.146Z,6.93
2023-03-06T03:46:50.430Z,6.85
2023-03-06T03:52:18.330Z,6.25
2023-03-06T03:57:43.218Z,5.15
2023-03-06T04:03:09.048Z,5.82
2023-03-06T04:08:37.132Z,4.63
2023-03-06T04:14:01.156Z,6.70
2023-03-06T04:19:26.419Z,6.93
2023-03-06T04:24:50.960Z,5.28
2023-03-06T04:30:16.788Z,6.25
2023-03-06T04:35:42.169Z,7.18
2023-03-06T04:41:11.337Z,7.53
2023-03-06T04:46:36.141Z,6.57
2023-03-06T04:52:01.311Z,6.78
2023-03-06T04:57:25.171Z,6.55
2023-03-06T05:02:49.716Z,7.00
2023-03-06T05:08:17.022Z,7.07
2023-03-06T05:13:41.054Z,6.53
2023-03-06T05:19:04.792Z,6.53
2023-03-06T05:24:29.897Z,6.97
2023-03-06T05:29:54.666Z,7.90
2023-03-06T05:35:20.544Z,9.15
2023-03-06T05:40:46.557Z,7.88
2023-03-06T05:46:12.025Z,9.45
2023-03-06T05:51:35.850Z,8.13
2023-03-06T05:57:01.000Z,6.97
2023-03-06T06:02:24.759Z,7.45
2023-03-06T06:07:49.028Z,7.22
2023-03-06T06:13:14.216Z,7.65
2023-03-06T06:18:40.969Z,7.43
2023-03-06T06:24:05.199Z,7.05
2023-03-06T06:29:30.443Z,7.35
2023-03-06T06:34:54.234Z,8.07
2023-03-06T06:40:18.816Z,6.72
2023-03-06T06:45:44.293Z,7.05
2023-03-06T06:51:08.051Z,6.68
2023-03-06T06:56:32.008Z,7.50
2023-03-06T07:01:58.228Z,7.10
2023-03-06T07:07:22.012Z,8.90
2023-03-06T07:12:45.821Z,10.38
2023-03-06T07:18:11.448Z,11.32
2023-03-06T07:23:35.255Z,14.38
2023-03-06T07:28:59.104Z,12.30
2023-03-06T07:34:24.222Z,8.32
2023-03-06T07:39:47.964Z,8.75
2023-03-06T07:45:13.160Z,7.55
2023-03-06T07:50:39.122Z,7.50
2023-03-06T07:56:08.550Z,8.98
2023-03-06T08:01:32.399Z,6.88
2023-03-06T08:06:59.540Z,6.60
2023-03-06T08:12:23.377Z,7.00
2023-03-06T08:17:47.448Z,6.82
2023-03-06T08:23:13.002Z,6.32
2023-03-06T08:28:36.925Z,6.80
2023-03-06T08:34:03.021Z,6.60
2023-03-06T08:39:28.267Z,6.07
2023-03-06T08:44:52.069Z,6.97
2023-03-06T08:50:15.858Z,6.70
2023-03-06T08:55:41.012Z,6.35
2023-03-06T09:01:07.349Z,6.63
2023-03-06T09:06:32.669Z,6.57
2023-03-06T09:11:57.769Z,6.57
2023-03-06T09:17:21.551Z,6.70
2023-03-06T09:22:45.695Z,7.20
2023-03-06T09:28:12.052Z,6.43
2023-03-06T09:33:36.141Z,7.32
2023-03-06T09:39:00.003Z,7.32
2023-03-06T09:44:27.700Z,6.85
2023-03-06T09:50:23.183Z,6.97
2023-03-06T09:55:51.573Z,7.20
2023-03-06T10:01:19.506Z,6.45
2023-03-06T10:06:50.317Z,7.15
2023-03-06T10:12:25.814Z,5.88
2023-03-06T10:17:51.496Z,7.43
2023-03-06T10:23:44.829Z,7.93
2023-03-06T10:29:39.195Z,8.40
2023-03-06T10:35:14.332Z,9.45
2023-03-06T10:40:48.409Z,7.82
2023-03-06T10:46:14.580Z,8.35
2023-03-06T10:51:39.786Z,8.80
2023-03-06T10:57:22.883Z,9.50
2023-03-06T11:02:46.646Z,8.32
2023-03-06T11:08:22.527Z,9.32
2023-03-06T11:13:56.667Z,7.93
2023-03-06T11:19:25.666Z,8.98
2023-03-06T11:24:54.669Z,8.63
2023-03-06T11:30:21.328Z,9.05
2023-03-06T11:35:52.939Z,9.20
2023-03-06T11:41:25.108Z,8.60
2023-03-06T11:46:53.914Z,7.75
2023-03-06T11:52:23.838Z,8.52
2023-03-06T11:57:55.483Z,8.18
2023-03-06T12:09:01.356Z,8.35
2023-03-06T12:14:37.011Z,9.80
2023-03-06T12:20:20.994Z,9.02
2023-03-06T12:25:50.782Z,9.07
2023-03-06T12:31:31.270Z,9.50
2023-03-06T12:37:05.519Z,9.73
2023-03-06T12:42:44.809Z,8.93
2023-03-06T12:48:16.448Z,10.15
2023-03-06T12:53:42.372Z,9.48
2023-03-06T12:59:06.366Z,9.95
2023-03-06T13:04:47.644Z,8.20
2023-03-06T13:10:21.542Z,8.82
2023-03-06T13:15:46.064Z,8.55
2023-03-06T13:21:47.110Z,8.52
2023-03-06T13:27:13.314Z,8.65
2023-03-06T13:32:37.529Z,9.50
2023-03-06T13:38:03.411Z,9.20
2023-03-06T13:43:27.234Z,9.40
2023-03-06T13:49:05.005Z,8.88
2023-03-06T13:54:38.997Z,8.02
2023-03-06T14:00:46.027Z,10.05
2023-03-06T14:06:47.174Z,9.07
2023-03-06T14:12:19.761Z,8.82
2023-03-06T14:17:54.178Z,9.20
2023-03-06T14:23:29.344Z,10.38
2023-03-06T14:28:58.879Z,9.40
2023-03-06T14:34:25.279Z,10.23
2023-03-06T14:39:49.146Z,10.45
2023-03-06T14:45:19.822Z,10.68
2023-03-06T14:50:50.229Z,20.20
2023-03-06T14:56:18.032Z,19.20
2023-03-06T15:01:46.750Z,40.30
2023-03-06T15:07:13.774Z,24.38
2023-03-06T15:12:39.740Z,26.30
2023-03-06T15:18:28.681Z,22.40
2023-03-06T15:23:53.866Z,31.50
2023-03-06T15:29:23.786Z,33.25
2023-03-06T15:34:48.877Z,30.20
2023-03-06T15:40:20.184Z,26.42
2023-03-06T15:45:43.937Z,18.83
2023-03-06T15:51:10.463Z,20.05
2023-03-06T15:56:38.446Z,18.05
2023-03-06T16:02:05.560Z,15.90
2023-03-06T16:07:30.712Z,19.73
2023-03-06T16:12:57.433Z,23.02
2023-03-06T16:18:21.277Z,37.80
2023-03-06T16:23:46.450Z,21.63
2023-03-06T16:29:15.838Z,12.82
2023-03-06T16:34:39.554Z,12.07
2023-03-06T16:40:06.884Z,12.30
2023-03-06T16:45:30.617Z,14.18
2023-03-06T16:50:54.341Z,12.75
2023-03-06T16:56:21.372Z,12.52
2023-03-06T17:01:45.752Z,13.23
2023-03-06T17:07:09.500Z,14.57
2023-03-06T17:12:34.708Z,15.35
2023-03-06T17:17:59.131Z,13.68
2023-03-06T17:23:26.223Z,12.55
2023-03-06T17:28:51.356Z,13.00
2023-03-06T17:34:15.115Z,12.77
2023-03-06T17:39:40.442Z,12.50
2023-03-06T17:45:09.171Z,10.80
2023-03-06T17:50:33.012Z,11.82
2023-03-06T17:55:58.010Z,12.70
2023-03-06T18:01:27.469Z,13.40
2023-03-06T18:06:51.461Z,13.18
2023-03-06T18:12:15.231Z,12.77
2023-03-06T18:17:40.387Z,12.20
2023-03-06T18:23:04.168Z,12.52
2023-03-06T18:28:30.771Z,13.98
2023-03-06T18:33:57.324Z,16.50
2023-03-06T18:39:22.372Z,17.95
2023-03-06T18:44:48.337Z,17.20
2023-03-06T18:50:17.464Z,17.13
2023-03-06T18:55:48.017Z,13.90
2023-03-06T19:01:12.275Z,15.23
2023-03-06T19:06:38.332Z,15.55
2023-03-06T19:12:03.543Z,18.88
2023-03-06T19:17:27.331Z,23.92
2023-03-06T19:22:52.836Z,24.55
2023-03-06T19:28:16.655Z,19.75
2023-03-06T19:33:42.567Z,18.30
2023-03-06T19:39:08.406Z,18.00
2023-03-06T19:44:32.253Z,17.65
2023-03-06T19:49:56.051Z,16.52
2023-03-06T19:55:21.185Z,16.90
2023-03-06T20:00:45.003Z,19.40
2023-03-06T20:06:13.708Z,18.90
2023-03-06T20:11:39.909Z,19.13
2023-03-06T20:17:03.781Z,15.63
2023-03-06T20:22:27.762Z,14.18
2023-03-06T20:27:52.882Z,14.80
2023-03-06T20:33:16.890Z,15.55
2023-03-06T20:38:40.711Z,13.55
2023-03-06T20:44:08.312Z,13.48
2023-03-06T20:49:32.106Z,13.55
2023-03-06T20:54:55.893Z,14.82
2023-03-06T21:00:21.884Z,14.13
2023-03-06T21:05:47.305Z,13.80
2023-03-06T21:11:11.177Z,15.15
2023-03-06T21:16:36.402Z,15.07
2023-03-06T21:22:00.208Z,15.82
2023-03-06T21:27:23.977Z,15.55
2023-03-06T21:32:49.121Z,18.13
2023-03-06T21:38:13.926Z,17.33
2023-03-06T21:43:37.903Z,16.50
2023-03-06T21:49:04.205Z,18.23
2023-03-06T21:54:29.347Z,17.48
2023-03-06T21:59:53.070Z,18.42
2023-03-06T22:05:18.491Z,16.27
2023-03-06T22:10:42.798Z,15.93
2023-03-06T22:16:07.650Z,16.88
2023-03-06T22:21:32.769Z,16.85
2023-03-06T22:26:56.725Z,18.38
2023-03-06T22:32:21.145Z,18.48
2023-03-06T22:37:46.274Z,19.17
2023-03-06T22:43:09.942Z,19.27
2023-03-06T22:48:34.151Z,18.52
2023-03-06T22:53:59.301Z,18.42
2023-03-06T22:59:23.109Z,18.38
2023-03-06T23:04:52.251Z,17.27
2023-03-06T23:10:18.701Z,16.77
2023-03-06T23:16:03.177Z,17.17
2023-03-06T23:21:45.869Z,16.42
2023-03-06T23:27:29.515Z,17.20
2023-03-06T23:32:53.293Z,18.38
2023-03-06T23:38:17.052Z,19.02
2023-03-06T23:43:42.543Z,18.73
2023-03-06T23:49:07.398Z,19.00
2023-03-06T23:54:31.151Z,18.30
2023-03-06T23:59:56.727Z,17.08
